Bookmark and Share
Track history (hours):
 

Al Rekayyat

Last reported at 2014-Apr-23 14:34 UTC. Time now 2014-Apr-23 15:31 UTC.
Position N 35°03' E 139°40'.

Length 315 m; draft 9.4 m.

MMSI: 538003347.

NotesDate/timePositionNaut miles runAvg speedWind from/ knotsBaromVisibWave heightAir tempDewpointWater temp
2014-Apr-23 14:34N 35°03' E 139°40'1212.4
2014-Apr-23 13:33N 35°14' E 139°46'1111.3
2014-Apr-23 12:33N 35°25' E 139°44'6 5.9
2014-Apr-23 11:33N 35°21' E 139°49'0 0.2
2014-Apr-23 10:33N 35°21' E 139°49'0 0.0
2014-Apr-23 09:33N 35°21' E 139°49'0 0.0
2014-Apr-23 08:33N 35°21' E 139°49'0 0.0
2014-Apr-23 07:33N 35°21' E 139°49'0 0.0
2014-Apr-23 06:33N 35°21' E 139°49'0 0.0
2014-Apr-23 05:33N 35°21' E 139°49'0 0.0
2014-Apr-23 04:33N 35°21' E 139°49'0 0.0
2014-Apr-23 03:33N 35°21' E 139°49'0 0.0
2014-Apr-23 02:33N 35°21' E 139°49'0 0.0
2014-Apr-23 01:33N 35°21' E 139°49'0 0.0
2014-Apr-23 00:33N 35°21' E 139°49'0 0.0
2014-Apr-22 23:33N 35°21' E 139°49'0 0.0
2014-Apr-22 22:33N 35°21' E 139°49'0 0.0
2014-Apr-22 21:33N 35°21' E 139°49'0 0.0
2014-Apr-22 20:33N 35°21' E 139°49'0 0.0
2014-Apr-22 19:33N 35°21' E 139°49'0 0.0
2014-Apr-22 18:33N 35°21' E 139°49'0 0.0
2014-Apr-22 17:33N 35°21' E 139°49'0 0.0
2014-Apr-22 16:33N 35°21' E 139°49'0 0.0
2014-Apr-22 15:33N 35°21' E 139°49'0 0.0
2014-Apr-22 14:33N 35°21' E 139°49'0 0.0
2014-Apr-22 13:33N 35°21' E 139°49'0 0.0
2014-Apr-22 12:33N 35°21' E 139°49'0 0.0
2014-Apr-22 11:33N 35°21' E 139°49'0 0.0
2014-Apr-22 10:33N 35°21' E 139°49'0 0.0
2014-Apr-22 09:33N 35°21' E 139°49'0 0.0
2014-Apr-22 08:33N 35°21' E 139°49'0 0.0
2014-Apr-22 07:33N 35°21' E 139°49'0 0.0
2014-Apr-22 06:33N 35°21' E 139°49'0 0.0
2014-Apr-22 05:33N 35°21' E 139°49'0 0.0
2014-Apr-22 04:33N 35°21' E 139°49'0 0.0
2014-Apr-22 03:33N 35°21' E 139°49'0 0.0
2014-Apr-22 02:33N 35°21' E 139°49'0 0.0
2014-Apr-22 01:33N 35°21' E 139°49'0 0.0
2014-Apr-22 00:33N 35°21' E 139°49'1 0.9
2014-Apr-21 23:33N 35°22' E 139°49'4 3.9
2014-Apr-21 22:33N 35°20' E 139°44'1110.7
2014-Apr-21 21:33N 35°09' E 139°46'10 9.8
2014-Apr-21 20:33N 35°02' E 139°38'1514.8
2014-Apr-21 19:33N 34°54' E 139°23'  
2014-Apr-17 03:04N 31°31' E 134°08'35 2.0
2014-Apr-16 09:22N 31°08' E 133°36'5 4.8
2014-Apr-16 08:21N 31°08' E 133°30'12 4.0
2014-Apr-16 05:16N 31°07' E 133°16'  

Dump ship's entire track history

sailing weather and tide predictions

Al Rekayyat — V7QF3 — position and weather